RYR1309 LPPR-EBCI
Flight info
| Callsign | RYR1309 |
|---|---|
| Flight time | 4h 51m |
| Altitude | 24000 |
| Route | TURON P600 ASDEB/N0466F340 DCT LOTEE/N0466F360 DCT AZFIC UN741 MOKOR UN873 BAZOS DCT BELDI DCT VEKIN Z173 ARVOL |
| Aircraft | B738/M-SDE2E3FGHIRWXY/LB1 |
Departure
| Time | 2026-05-05 12:46 |
|---|---|
| Airport | Francisco de Sá Carneiro Airport (LPPR) |
Arrival
| Time | 2026-05-05 17:38 |
|---|---|
| Airport | Brussels South Charleroi Airport (EBCI) |
| Time | Latitude | Longitude | Altitude | Speed | Heading |
|---|---|---|---|---|---|
| 2026-05-05 12:26 | 41.24017 | -8.67313 | 236 ft | 0 kts | 90° |
| 2026-05-05 12:39 | 41.24017 | -8.67330 | 240 ft | 3 kts | 90° |
| 2026-05-05 12:40 | 41.24017 | -8.67357 | 238 ft | 3 kts | 90° |
| 2026-05-05 12:40 | 41.24017 | -8.67383 | 239 ft | 3 kts | 96° |
| 2026-05-05 12:40 | 41.24023 | -8.67406 | 240 ft | 3 kts | 131° |
| 2026-05-05 12:40 | 41.24037 | -8.67421 | 240 ft | 3 kts | 162° |
| 2026-05-05 12:41 | 41.24045 | -8.67424 | 238 ft | 0 kts | 168° |
| 2026-05-05 12:43 | 41.24032 | -8.67421 | 241 ft | 4 kts | 168° |
| 2026-05-05 12:43 | 41.23984 | -8.67428 | 236 ft | 10 kts | 203° |
| 2026-05-05 12:43 | 41.23905 | -8.67487 | 240 ft | 16 kts | 194° |
| 2026-05-05 12:43 | 41.23784 | -8.67465 | 236 ft | 19 kts | 168° |
| 2026-05-05 12:44 | 41.23660 | -8.67448 | 238 ft | 18 kts | 203° |
| 2026-05-05 12:44 | 41.23613 | -8.67591 | 235 ft | 17 kts | 259° |
| 2026-05-05 12:44 | 41.23589 | -8.67752 | 231 ft | 12 kts | 258° |
| 2026-05-05 12:44 | 41.23605 | -8.67810 | 228 ft | 5 kts | 348° |
| 2026-05-05 12:45 | 41.23655 | -8.67825 | 227 ft | 20 kts | 349° |
| 2026-05-05 12:45 | 41.23722 | -8.67842 | 225 ft | 0 kts | 349° |
| 2026-05-05 12:46 | 41.23798 | -8.67861 | 222 ft | 42 kts | 349° |
| 2026-05-05 12:46 | 41.24387 | -8.68016 | 208 ft | 129 kts | 349° |
| 2026-05-05 12:46 | 41.25512 | -8.68326 | 264 ft | 195 kts | 345° |
| 2026-05-05 12:46 | 41.26952 | -8.68710 | 890 ft | 227 kts | 346° |
| 2026-05-05 12:47 | 41.28614 | -8.69112 | 1609 ft | 259 kts | 348° |
| 2026-05-05 12:47 | 41.30381 | -8.69560 | 2908 ft | 260 kts | 347° |
| 2026-05-05 12:47 | 41.32127 | -8.70021 | 4208 ft | 248 kts | 347° |
| 2026-05-05 12:47 | 41.33808 | -8.70467 | 5244 ft | 248 kts | 348° |
| 2026-05-05 12:48 | 41.35527 | -8.70926 | 6025 ft | 253 kts | 348° |
| 2026-05-05 12:48 | 41.37255 | -8.71386 | 6779 ft | 259 kts | 348° |
| 2026-05-05 12:48 | 41.39031 | -8.71860 | 7591 ft | 261 kts | 348° |
| 2026-05-05 12:48 | 41.40820 | -8.72336 | 8391 ft | 264 kts | 347° |
| 2026-05-05 12:49 | 41.42649 | -8.72683 | 9186 ft | 268 kts | 1° |
| 2026-05-05 12:49 | 41.44506 | -8.72296 | 10008 ft | 272 kts | 8° |
| 2026-05-05 12:49 | 41.46390 | -8.71802 | 10581 ft | 283 kts | 8° |
| 2026-05-05 12:49 | 41.48408 | -8.71274 | 10752 ft | 307 kts | 8° |
| 2026-05-05 12:50 | 41.50584 | -8.70711 | 10931 ft | 330 kts | 8° |
| 2026-05-05 12:50 | 41.52911 | -8.70113 | 11091 ft | 351 kts | 8° |
| 2026-05-05 12:50 | 41.55358 | -8.69488 | 11492 ft | 362 kts | 8° |
| 2026-05-05 12:50 | 41.57821 | -8.68862 | 12128 ft | 367 kts | 8° |
| 2026-05-05 12:51 | 41.59279 | -8.68491 | 12533 ft | 368 kts | 8° |
| 2026-05-05 12:51 | 41.61812 | -8.67849 | 13237 ft | 372 kts | 8° |
| 2026-05-05 12:51 | 41.64366 | -8.67200 | 13929 ft | 375 kts | 8° |
| 2026-05-05 12:51 | 41.66941 | -8.66547 | 14528 ft | 377 kts | 8° |
| 2026-05-05 12:52 | 41.69527 | -8.65889 | 15167 ft | 380 kts | 8° |
| 2026-05-05 12:52 | 41.72102 | -8.65233 | 15809 ft | 382 kts | 7° |
| 2026-05-05 12:52 | 41.74726 | -8.64564 | 16420 ft | 385 kts | 7° |
| 2026-05-05 12:52 | 41.77367 | -8.63891 | 17017 ft | 387 kts | 7° |
| 2026-05-05 12:53 | 41.80024 | -8.63212 | 17599 ft | 390 kts | 7° |
| 2026-05-05 12:53 | 41.82705 | -8.62527 | 18177 ft | 393 kts | 7° |
| 2026-05-05 12:53 | 41.85402 | -8.61837 | 18701 ft | 396 kts | 7° |
| 2026-05-05 12:53 | 41.88111 | -8.61144 | 19260 ft | 397 kts | 7° |
| 2026-05-05 12:54 | 41.93538 | -8.59751 | 20356 ft | 398 kts | 6° |
| 2026-05-05 12:54 | 41.96272 | -8.59050 | 20868 ft | 400 kts | 6° |
| 2026-05-05 12:54 | 41.98974 | -8.58355 | 21388 ft | 401 kts | 6° |
| 2026-05-05 12:55 | 42.01715 | -8.57651 | 21905 ft | 401 kts | 6° |
| 2026-05-05 12:55 | 42.04473 | -8.56941 | 22330 ft | 404 kts | 5° |
| 2026-05-05 12:55 | 42.07237 | -8.56242 | 22796 ft | 404 kts | 4° |
| 2026-05-05 12:55 | 42.10020 | -8.55703 | 23251 ft | 404 kts | 1° |
| 2026-05-05 12:56 | 42.12814 | -8.55270 | 23693 ft | 405 kts | 1° |
| 2026-05-05 12:56 | 42.15626 | -8.54864 | 24018 ft | 408 kts | 1° |
| 2026-05-05 12:56 | 42.18458 | -8.54453 | 24297 ft | 411 kts | 1° |
| 2026-05-05 12:56 | 42.21312 | -8.54025 | 24624 ft | 413 kts | 1° |
| 2026-05-05 12:57 | 42.24177 | -8.53582 | 24932 ft | 415 kts | 1° |
| 2026-05-05 12:57 | 42.27053 | -8.53127 | 25231 ft | 417 kts | 1° |
| 2026-05-05 12:57 | 42.29941 | -8.52667 | 25486 ft | 420 kts | 1° |
| 2026-05-05 12:57 | 42.32809 | -8.52208 | 25770 ft | 422 kts | 1° |
| 2026-05-05 12:58 | 42.35629 | -8.51756 | 26063 ft | 423 kts | 1° |
| 2026-05-05 12:58 | 42.38551 | -8.51287 | 26372 ft | 425 kts | 1° |
| 2026-05-05 12:58 | 42.41318 | -8.50844 | 26640 ft | 427 kts | 1° |
| 2026-05-05 12:58 | 42.44269 | -8.50371 | 26920 ft | 428 kts | 1° |
| 2026-05-05 12:59 | 42.47241 | -8.49849 | 27191 ft | 432 kts | 5° |
| 2026-05-05 12:59 | 42.50151 | -8.48712 | 27598 ft | 439 kts | 15° |
| 2026-05-05 12:59 | 42.52934 | -8.46975 | 28097 ft | 442 kts | 21° |
| 2026-05-05 13:00 | 42.57953 | -8.41934 | 28847 ft | 454 kts | 33° |
| 2026-05-05 13:00 | 42.59522 | -8.40061 | 29058 ft | 455 kts | 34° |
| 2026-05-05 13:01 | 42.67020 | -8.30982 | 30270 ft | 452 kts | 34° |
| 2026-05-05 13:01 | 42.69376 | -8.28151 | 30548 ft | 453 kts | 34° |
| 2026-05-05 13:01 | 42.71742 | -8.25321 | 30798 ft | 453 kts | 34° |
| 2026-05-05 13:01 | 42.74119 | -8.22488 | 31069 ft | 454 kts | 34° |
| 2026-05-05 13:02 | 42.75694 | -8.20611 | 31272 ft | 454 kts | 34° |
| 2026-05-05 13:02 | 42.78069 | -8.17778 | 31550 ft | 454 kts | 35° |
| 2026-05-05 13:02 | 42.80450 | -8.14938 | 31813 ft | 454 kts | 35° |
| 2026-05-05 13:02 | 42.82828 | -8.12098 | 32078 ft | 455 kts | 35° |
| 2026-05-05 13:03 | 42.85211 | -8.09249 | 32353 ft | 455 kts | 35° |
| 2026-05-05 13:03 | 42.87588 | -8.06403 | 32607 ft | 455 kts | 36° |
| 2026-05-05 13:03 | 42.89968 | -8.03549 | 32857 ft | 456 kts | 36° |
| 2026-05-05 13:03 | 42.92345 | -8.00696 | 33119 ft | 456 kts | 36° |
| 2026-05-05 13:04 | 42.94730 | -7.97830 | 33369 ft | 456 kts | 36° |
| 2026-05-05 13:04 | 42.97110 | -7.94967 | 33620 ft | 456 kts | 36° |
| 2026-05-05 13:04 | 42.99461 | -7.92137 | 33863 ft | 456 kts | 36° |
| 2026-05-05 13:04 | 43.01842 | -7.89267 | 34064 ft | 457 kts | 36° |
| 2026-05-05 13:05 | 43.06629 | -7.83490 | 34051 ft | 459 kts | 37° |
| 2026-05-05 13:05 | 43.11396 | -7.77719 | 34052 ft | 456 kts | 37° |
| 2026-05-05 13:06 | 43.16125 | -7.71982 | 34050 ft | 453 kts | 37° |
| 2026-05-05 13:06 | 43.20840 | -7.66253 | 34051 ft | 452 kts | 37° |
| 2026-05-05 13:07 | 43.25512 | -7.60565 | 34051 ft | 452 kts | 37° |
| 2026-05-05 13:07 | 43.30212 | -7.54830 | 34052 ft | 453 kts | 37° |
| 2026-05-05 13:08 | 43.34925 | -7.49068 | 34054 ft | 455 kts | 37° |
| 2026-05-05 13:08 | 43.39672 | -7.43251 | 34056 ft | 457 kts | 37° |
| 2026-05-05 13:09 | 43.44431 | -7.37405 | 34048 ft | 459 kts | 38° |
| 2026-05-05 13:09 | 43.49173 | -7.31567 | 34053 ft | 461 kts | 38° |
| 2026-05-05 13:10 | 43.53957 | -7.25663 | 34052 ft | 462 kts | 38° |
| 2026-05-05 13:10 | 43.58746 | -7.19741 | 34052 ft | 462 kts | 38° |
| 2026-05-05 13:11 | 43.63531 | -7.13810 | 34049 ft | 462 kts | 38° |
| 2026-05-05 13:11 | 43.68308 | -7.07877 | 34045 ft | 461 kts | 38° |
| 2026-05-05 13:12 | 43.73073 | -7.01945 | 34043 ft | 461 kts | 38° |
| 2026-05-05 13:12 | 43.77800 | -6.96047 | 34044 ft | 460 kts | 38° |
| 2026-05-05 13:13 | 43.82551 | -6.90107 | 34044 ft | 460 kts | 39° |
| 2026-05-05 13:13 | 43.87291 | -6.84166 | 34033 ft | 459 kts | 39° |
| 2026-05-05 13:14 | 43.92039 | -6.78203 | 34044 ft | 459 kts | 39° |
| 2026-05-05 13:14 | 43.96776 | -6.72239 | 34042 ft | 460 kts | 39° |
| 2026-05-05 13:15 | 44.01511 | -6.66266 | 34041 ft | 460 kts | 39° |
| 2026-05-05 13:15 | 44.06221 | -6.60309 | 34028 ft | 460 kts | 39° |
| 2026-05-05 13:16 | 44.10958 | -6.54307 | 34037 ft | 461 kts | 40° |
| 2026-05-05 13:16 | 44.15697 | -6.48286 | 34034 ft | 461 kts | 40° |
| 2026-05-05 13:17 | 44.20431 | -6.42260 | 34030 ft | 461 kts | 40° |
| 2026-05-05 13:17 | 44.25175 | -6.36206 | 34032 ft | 461 kts | 40° |
| 2026-05-05 13:18 | 44.29908 | -6.30152 | 34029 ft | 462 kts | 40° |
| 2026-05-05 13:18 | 44.34634 | -6.24093 | 34027 ft | 461 kts | 40° |
| 2026-05-05 13:19 | 44.39363 | -6.18017 | 34025 ft | 461 kts | 41° |
| 2026-05-05 13:19 | 44.44083 | -6.11938 | 34024 ft | 461 kts | 41° |
| 2026-05-05 13:20 | 44.48765 | -6.05894 | 34019 ft | 460 kts | 41° |
| 2026-05-05 13:20 | 44.53476 | -5.99799 | 34018 ft | 460 kts | 41° |
| 2026-05-05 13:21 | 44.58181 | -5.93696 | 34016 ft | 460 kts | 41° |
| 2026-05-05 13:21 | 44.62868 | -5.87604 | 34012 ft | 459 kts | 41° |
| 2026-05-05 13:22 | 44.67514 | -5.81522 | 34015 ft | 459 kts | 42° |
| 2026-05-05 13:22 | 44.72110 | -5.75252 | 34013 ft | 459 kts | 43° |
| 2026-05-05 13:23 | 44.76666 | -5.68959 | 34009 ft | 459 kts | 43° |
| 2026-05-05 13:23 | 44.81203 | -5.62700 | 34011 ft | 458 kts | 43° |
| 2026-05-05 13:24 | 44.85756 | -5.56423 | 34003 ft | 458 kts | 43° |
| 2026-05-05 13:24 | 44.90317 | -5.50129 | 34004 ft | 458 kts | 43° |
| 2026-05-05 13:25 | 44.94878 | -5.43820 | 34004 ft | 458 kts | 43° |
| 2026-05-05 13:25 | 44.99423 | -5.37518 | 34005 ft | 458 kts | 43° |
| 2026-05-05 13:26 | 45.03936 | -5.31245 | 33993 ft | 458 kts | 43° |
| 2026-05-05 13:26 | 45.08483 | -5.24911 | 33999 ft | 458 kts | 44° |
| 2026-05-05 13:27 | 45.13015 | -5.18582 | 34003 ft | 457 kts | 44° |
| 2026-05-05 13:27 | 45.17541 | -5.12246 | 34003 ft | 457 kts | 44° |
| 2026-05-05 13:28 | 45.22061 | -5.05904 | 33988 ft | 457 kts | 44° |
| 2026-05-05 13:28 | 45.26581 | -4.99546 | 33997 ft | 457 kts | 44° |
| 2026-05-05 13:29 | 45.30988 | -4.93333 | 33989 ft | 457 kts | 44° |
| 2026-05-05 13:29 | 45.35495 | -4.86964 | 33982 ft | 457 kts | 44° |
| 2026-05-05 13:30 | 45.40001 | -4.80583 | 33986 ft | 457 kts | 44° |
| 2026-05-05 13:30 | 45.44500 | -4.74196 | 33984 ft | 457 kts | 44° |
| 2026-05-05 13:31 | 45.48999 | -4.67792 | 33974 ft | 457 kts | 44° |
| 2026-05-05 13:31 | 45.53503 | -4.61367 | 33980 ft | 457 kts | 44° |
| 2026-05-05 13:32 | 45.57999 | -4.54937 | 33982 ft | 458 kts | 45° |
| 2026-05-05 13:32 | 45.62495 | -4.48492 | 33987 ft | 458 kts | 45° |
| 2026-05-05 13:33 | 45.66377 | -4.42915 | 33969 ft | 458 kts | 45° |
| 2026-05-05 16:19 | 45.68451 | -4.39931 | 33937 ft | 460 kts | 45° |
| 2026-05-05 16:20 | 45.77596 | -4.26730 | 33969 ft | 471 kts | 46° |
| 2026-05-05 16:22 | 45.89116 | -4.10009 | 33952 ft | 472 kts | 46° |
| 2026-05-05 16:23 | 45.98307 | -3.96594 | 33946 ft | 470 kts | 47° |
| 2026-05-05 16:23 | 46.05155 | -3.86552 | 33948 ft | 467 kts | 47° |
| 2026-05-05 16:24 | 46.09699 | -3.79869 | 33943 ft | 466 kts | 47° |
| 2026-05-05 16:25 | 46.16498 | -3.69838 | 33939 ft | 465 kts | 47° |
| 2026-05-05 16:25 | 46.23241 | -3.59852 | 33940 ft | 464 kts | 47° |
| 2026-05-05 16:26 | 46.32248 | -3.46455 | 33936 ft | 464 kts | 47° |
| 2026-05-05 16:27 | 46.36744 | -3.39741 | 33934 ft | 464 kts | 47° |
| 2026-05-05 16:27 | 46.41215 | -3.33049 | 33930 ft | 464 kts | 47° |
| 2026-05-05 16:28 | 46.45708 | -3.26306 | 33925 ft | 465 kts | 47° |
| 2026-05-05 16:28 | 46.50202 | -3.19544 | 33926 ft | 465 kts | 47° |
| 2026-05-05 16:29 | 46.54682 | -3.12789 | 33914 ft | 464 kts | 47° |
| 2026-05-05 16:29 | 46.58657 | -3.05435 | 33925 ft | 461 kts | 60° |
| 2026-05-05 16:30 | 46.61831 | -2.97412 | 33920 ft | 461 kts | 62° |
| 2026-05-05 16:30 | 46.64999 | -2.89316 | 33919 ft | 461 kts | 62° |
| 2026-05-05 16:31 | 46.68208 | -2.81229 | 33910 ft | 461 kts | 62° |
| 2026-05-05 16:31 | 46.71431 | -2.73147 | 33913 ft | 461 kts | 62° |
| 2026-05-05 16:32 | 46.74654 | -2.65047 | 33910 ft | 462 kts | 62° |
| 2026-05-05 16:32 | 46.77872 | -2.56928 | 33912 ft | 462 kts | 62° |
| 2026-05-05 16:33 | 46.81064 | -2.48849 | 33912 ft | 463 kts | 62° |
| 2026-05-05 16:33 | 46.84279 | -2.40690 | 33896 ft | 463 kts | 62° |
| 2026-05-05 16:34 | 46.87525 | -2.32545 | 33896 ft | 464 kts | 61° |
| 2026-05-05 16:34 | 46.90946 | -2.24516 | 33906 ft | 465 kts | 60° |
| 2026-05-05 16:35 | 46.94370 | -2.16477 | 33897 ft | 465 kts | 60° |
| 2026-05-05 16:35 | 46.97746 | -2.08440 | 33901 ft | 466 kts | 61° |
| 2026-05-05 16:36 | 47.01534 | -2.00727 | 33890 ft | 470 kts | 48° |
| 2026-05-05 16:36 | 47.06609 | -1.94649 | 33901 ft | 473 kts | 38° |
| 2026-05-05 16:37 | 47.11950 | -1.88959 | 33880 ft | 474 kts | 39° |
| 2026-05-05 16:37 | 47.17225 | -1.83130 | 33883 ft | 473 kts | 39° |
| 2026-05-05 16:38 | 47.22485 | -1.77318 | 33890 ft | 474 kts | 39° |
| 2026-05-05 16:38 | 47.27771 | -1.71483 | 33881 ft | 474 kts | 39° |
| 2026-05-05 16:39 | 47.33000 | -1.65683 | 33894 ft | 474 kts | 40° |
| 2026-05-05 16:39 | 47.37547 | -1.58774 | 33900 ft | 467 kts | 54° |
| 2026-05-05 16:40 | 47.41501 | -1.51164 | 33870 ft | 467 kts | 56° |
| 2026-05-05 16:40 | 47.45451 | -1.43549 | 33884 ft | 466 kts | 55° |
| 2026-05-05 16:41 | 47.49425 | -1.35975 | 33878 ft | 465 kts | 55° |
| 2026-05-05 16:41 | 47.53378 | -1.28465 | 33883 ft | 464 kts | 55° |
| 2026-05-05 16:42 | 47.57338 | -1.20922 | 33878 ft | 464 kts | 55° |
| 2026-05-05 16:42 | 47.61298 | -1.13351 | 33875 ft | 465 kts | 55° |
| 2026-05-05 16:43 | 47.65254 | -1.05767 | 33882 ft | 465 kts | 56° |
| 2026-05-05 16:43 | 47.69213 | -0.98154 | 33882 ft | 466 kts | 56° |
| 2026-05-05 16:44 | 47.73180 | -0.90509 | 33886 ft | 468 kts | 56° |
| 2026-05-05 16:44 | 47.77153 | -0.82827 | 33878 ft | 469 kts | 56° |
| 2026-05-05 16:45 | 47.81128 | -0.75118 | 33880 ft | 470 kts | 56° |
| 2026-05-05 16:45 | 47.85101 | -0.67391 | 33884 ft | 471 kts | 56° |
| 2026-05-05 16:46 | 47.89060 | -0.59670 | 33875 ft | 472 kts | 56° |
| 2026-05-05 16:46 | 47.93042 | -0.51879 | 33872 ft | 473 kts | 56° |
| 2026-05-05 16:47 | 47.97023 | -0.44071 | 33879 ft | 472 kts | 56° |
| 2026-05-05 16:47 | 48.00993 | -0.36261 | 33878 ft | 472 kts | 56° |
| 2026-05-05 16:48 | 48.04944 | -0.28467 | 33882 ft | 473 kts | 56° |
| 2026-05-05 16:48 | 48.08943 | -0.20617 | 33880 ft | 475 kts | 55° |
| 2026-05-05 16:49 | 48.12998 | -0.12829 | 33875 ft | 474 kts | 55° |
| 2026-05-05 16:49 | 48.17051 | -0.05040 | 33884 ft | 474 kts | 55° |
| 2026-05-05 16:50 | 48.21078 | 0.02751 | 33883 ft | 474 kts | 55° |
| 2026-05-05 16:50 | 48.25116 | 0.10598 | 33879 ft | 475 kts | 55° |
| 2026-05-05 16:51 | 48.29151 | 0.18463 | 33875 ft | 475 kts | 55° |
| 2026-05-05 16:51 | 48.33179 | 0.26337 | 33875 ft | 475 kts | 55° |
| 2026-05-05 16:52 | 48.37209 | 0.34235 | 33869 ft | 476 kts | 55° |
| 2026-05-05 16:52 | 48.41214 | 0.42081 | 33864 ft | 476 kts | 54° |
| 2026-05-05 16:53 | 48.45276 | 0.49968 | 33884 ft | 476 kts | 54° |
| 2026-05-05 16:53 | 48.49332 | 0.57868 | 33881 ft | 476 kts | 54° |
| 2026-05-05 16:54 | 48.53714 | 0.65399 | 33850 ft | 479 kts | 41° |
| 2026-05-05 16:54 | 48.59033 | 0.71462 | 33857 ft | 480 kts | 37° |
| 2026-05-05 16:55 | 48.64430 | 0.77438 | 33852 ft | 480 kts | 38° |
| 2026-05-05 16:55 | 48.69738 | 0.83477 | 33859 ft | 480 kts | 38° |
| 2026-05-05 16:56 | 48.75060 | 0.89587 | 33856 ft | 480 kts | 38° |
| 2026-05-05 16:56 | 48.80374 | 0.95694 | 33854 ft | 479 kts | 38° |
| 2026-05-05 16:57 | 48.85695 | 1.01825 | 33863 ft | 479 kts | 38° |
| 2026-05-05 16:57 | 48.90967 | 1.07917 | 33851 ft | 479 kts | 38° |
| 2026-05-05 16:58 | 48.96278 | 1.14073 | 33853 ft | 480 kts | 38° |
| 2026-05-05 16:58 | 49.01589 | 1.20241 | 33856 ft | 480 kts | 38° |
| 2026-05-05 16:59 | 49.05871 | 1.25720 | 33860 ft | 479 kts | 44° |
| 2026-05-05 16:59 | 49.10686 | 1.32765 | 33859 ft | 480 kts | 45° |
| 2026-05-05 17:00 | 49.15496 | 1.39847 | 33836 ft | 481 kts | 45° |
| 2026-05-05 17:00 | 49.20347 | 1.46892 | 33847 ft | 481 kts | 45° |
| 2026-05-05 17:01 | 49.25177 | 1.53899 | 33853 ft | 482 kts | 45° |
| 2026-05-05 17:01 | 49.30044 | 1.60988 | 33844 ft | 482 kts | 45° |
| 2026-05-05 17:02 | 49.34894 | 1.68070 | 33854 ft | 481 kts | 45° |
| 2026-05-05 17:02 | 49.39744 | 1.75172 | 33851 ft | 480 kts | 45° |
| 2026-05-05 17:03 | 49.44569 | 1.82260 | 33849 ft | 479 kts | 45° |
| 2026-05-05 17:03 | 49.49374 | 1.89336 | 33858 ft | 478 kts | 45° |
| 2026-05-05 17:04 | 49.54145 | 1.96385 | 33852 ft | 476 kts | 45° |
| 2026-05-05 17:04 | 49.58914 | 2.03449 | 33856 ft | 475 kts | 45° |
| 2026-05-05 17:05 | 49.63668 | 2.10516 | 33858 ft | 474 kts | 45° |
| 2026-05-05 17:05 | 49.68410 | 2.17583 | 33842 ft | 473 kts | 46° |
| 2026-05-05 17:06 | 49.73111 | 2.24611 | 33856 ft | 472 kts | 46° |
| 2026-05-05 17:06 | 49.77828 | 2.31683 | 33853 ft | 473 kts | 46° |
| 2026-05-05 17:07 | 49.82557 | 2.38793 | 33861 ft | 475 kts | 46° |
| 2026-05-05 17:07 | 49.87306 | 2.45954 | 33859 ft | 478 kts | 46° |
| 2026-05-05 17:08 | 49.92083 | 2.53176 | 33848 ft | 479 kts | 46° |
| 2026-05-05 17:08 | 49.94474 | 2.56799 | 33565 ft | 484 kts | 46° |
| 2026-05-05 17:08 | 49.96896 | 2.60475 | 32904 ft | 485 kts | 46° |
| 2026-05-05 17:09 | 49.99295 | 2.64121 | 32241 ft | 482 kts | 46° |
| 2026-05-05 17:09 | 50.01661 | 2.67722 | 31553 ft | 480 kts | 46° |
| 2026-05-05 17:09 | 50.04045 | 2.71357 | 30803 ft | 480 kts | 46° |
| 2026-05-05 17:09 | 50.06432 | 2.75003 | 30037 ft | 481 kts | 46° |
| 2026-05-05 17:10 | 50.08821 | 2.78656 | 29154 ft | 481 kts | 46° |
| 2026-05-05 17:10 | 50.11208 | 2.82312 | 28308 ft | 479 kts | 46° |
| 2026-05-05 17:10 | 50.13573 | 2.85940 | 27441 ft | 479 kts | 45° |
| 2026-05-05 17:10 | 50.15952 | 2.89595 | 26628 ft | 477 kts | 45° |
| 2026-05-05 17:11 | 50.18295 | 2.93199 | 26046 ft | 470 kts | 45° |
| 2026-05-05 17:11 | 50.20616 | 2.96775 | 25402 ft | 466 kts | 45° |
| 2026-05-05 17:11 | 50.22912 | 3.00318 | 24793 ft | 461 kts | 45° |
| 2026-05-05 17:11 | 50.25180 | 3.03822 | 24191 ft | 456 kts | 45° |
| 2026-05-05 17:12 | 50.27426 | 3.07298 | 23596 ft | 452 kts | 45° |
| 2026-05-05 17:12 | 50.29649 | 3.10742 | 22925 ft | 448 kts | 45° |
| 2026-05-05 17:12 | 50.31855 | 3.14165 | 22274 ft | 444 kts | 45° |
| 2026-05-05 17:12 | 50.34010 | 3.17515 | 21687 ft | 438 kts | 45° |
| 2026-05-05 17:13 | 50.36154 | 3.20850 | 21086 ft | 433 kts | 45° |
| 2026-05-05 17:13 | 50.38286 | 3.24170 | 20491 ft | 429 kts | 45° |
| 2026-05-05 17:13 | 50.40389 | 3.27451 | 19902 ft | 424 kts | 45° |
| 2026-05-05 17:13 | 50.42468 | 3.30698 | 19383 ft | 419 kts | 45° |
| 2026-05-05 17:14 | 50.44526 | 3.33913 | 18803 ft | 415 kts | 45° |
| 2026-05-05 17:14 | 50.46563 | 3.37101 | 18234 ft | 412 kts | 45° |
| 2026-05-05 17:14 | 50.48595 | 3.40284 | 17585 ft | 409 kts | 45° |
| 2026-05-05 17:14 | 50.50601 | 3.43430 | 16959 ft | 405 kts | 45° |
| 2026-05-05 17:15 | 50.52564 | 3.46513 | 16379 ft | 401 kts | 45° |
| 2026-05-05 17:15 | 50.54370 | 3.49800 | 15788 ft | 396 kts | 58° |
| 2026-05-05 17:15 | 50.55464 | 3.53701 | 15570 ft | 385 kts | 72° |
| 2026-05-05 17:15 | 50.56228 | 3.57671 | 15344 ft | 381 kts | 73° |
| 2026-05-05 17:16 | 50.56969 | 3.61758 | 15059 ft | 389 kts | 74° |
| 2026-05-05 17:16 | 50.57703 | 3.65844 | 14761 ft | 387 kts | 74° |
| 2026-05-05 17:16 | 50.58442 | 3.69910 | 14474 ft | 386 kts | 73° |
| 2026-05-05 17:16 | 50.59190 | 3.73980 | 14171 ft | 385 kts | 73° |
| 2026-05-05 17:17 | 50.59939 | 3.78011 | 13885 ft | 383 kts | 73° |
| 2026-05-05 17:17 | 50.60682 | 3.81996 | 13583 ft | 385 kts | 73° |
| 2026-05-05 17:17 | 50.61431 | 3.86006 | 13261 ft | 385 kts | 73° |
| 2026-05-05 17:17 | 50.62184 | 3.90042 | 12944 ft | 381 kts | 73° |
| 2026-05-05 17:18 | 50.62928 | 3.94033 | 12648 ft | 377 kts | 73° |
| 2026-05-05 17:18 | 50.63661 | 3.97979 | 12351 ft | 375 kts | 73° |
| 2026-05-05 17:18 | 50.64391 | 4.01912 | 12042 ft | 372 kts | 73° |
| 2026-05-05 17:18 | 50.65105 | 4.05772 | 11747 ft | 363 kts | 73° |
| 2026-05-05 17:19 | 50.65802 | 4.09547 | 11474 ft | 351 kts | 73° |
| 2026-05-05 17:19 | 50.66467 | 4.13151 | 11196 ft | 334 kts | 73° |
| 2026-05-05 17:19 | 50.67089 | 4.16534 | 10954 ft | 318 kts | 73° |
| 2026-05-05 17:19 | 50.67691 | 4.19817 | 10713 ft | 303 kts | 73° |
| 2026-05-05 17:20 | 50.68265 | 4.22948 | 10493 ft | 291 kts | 73° |
| 2026-05-05 17:20 | 50.68516 | 4.26030 | 10260 ft | 281 kts | 96° |
| 2026-05-05 17:20 | 50.67920 | 4.28913 | 10086 ft | 278 kts | 120° |
| 2026-05-05 17:20 | 50.66684 | 4.31263 | 9880 ft | 281 kts | 141° |
| 2026-05-05 17:21 | 50.65023 | 4.32890 | 9681 ft | 282 kts | 150° |
| 2026-05-05 17:21 | 50.63286 | 4.34337 | 9422 ft | 281 kts | 152° |
| 2026-05-05 17:21 | 50.61560 | 4.35745 | 9172 ft | 278 kts | 152° |
| 2026-05-05 17:22 | 50.58174 | 4.38534 | 8751 ft | 271 kts | 151° |
| 2026-05-05 17:22 | 50.56513 | 4.39916 | 8540 ft | 270 kts | 151° |
| 2026-05-05 17:22 | 50.54851 | 4.41305 | 8338 ft | 271 kts | 151° |
| 2026-05-05 17:22 | 50.53201 | 4.42685 | 8132 ft | 273 kts | 151° |
| 2026-05-05 17:23 | 50.51522 | 4.44088 | 7934 ft | 274 kts | 151° |
| 2026-05-05 17:23 | 50.49843 | 4.45504 | 7722 ft | 275 kts | 147° |
| 2026-05-05 17:23 | 50.48480 | 4.47559 | 7480 ft | 271 kts | 119° |
| 2026-05-05 17:23 | 50.47912 | 4.50314 | 7257 ft | 264 kts | 92° |
| 2026-05-05 17:24 | 50.48137 | 4.53115 | 7080 ft | 258 kts | 70° |
| 2026-05-05 17:24 | 50.48838 | 4.55687 | 6902 ft | 257 kts | 65° |
| 2026-05-05 17:24 | 50.49602 | 4.58233 | 6708 ft | 257 kts | 64° |
| 2026-05-05 17:24 | 50.50369 | 4.60782 | 6500 ft | 258 kts | 65° |
| 2026-05-05 17:25 | 50.51131 | 4.63332 | 6311 ft | 258 kts | 65° |
| 2026-05-05 17:25 | 50.51634 | 4.65031 | 6252 ft | 259 kts | 65° |
| 2026-05-05 17:25 | 50.52654 | 4.68499 | 5912 ft | 262 kts | 65° |
| 2026-05-05 17:25 | 50.53412 | 4.71095 | 5691 ft | 260 kts | 65° |
| 2026-05-05 17:26 | 50.54163 | 4.73673 | 5492 ft | 257 kts | 65° |
| 2026-05-05 17:26 | 50.54875 | 4.76164 | 5283 ft | 248 kts | 70° |
| 2026-05-05 17:26 | 50.55047 | 4.78791 | 5097 ft | 240 kts | 100° |
| 2026-05-05 17:26 | 50.54393 | 4.81135 | 4907 ft | 234 kts | 127° |
| 2026-05-05 17:27 | 50.53146 | 4.82723 | 4727 ft | 233 kts | 153° |
| 2026-05-05 17:27 | 50.51573 | 4.83259 | 4577 ft | 233 kts | 181° |
| 2026-05-05 17:27 | 50.50018 | 4.82609 | 4369 ft | 234 kts | 209° |
| 2026-05-05 17:27 | 50.48796 | 4.80954 | 4197 ft | 234 kts | 235° |
| 2026-05-05 17:28 | 50.48333 | 4.78567 | 3989 ft | 231 kts | 279° |
| 2026-05-05 17:28 | 50.48890 | 4.76274 | 3908 ft | 225 kts | 301° |
| 2026-05-05 17:28 | 50.49549 | 4.74051 | 3681 ft | 221 kts | 295° |
| 2026-05-05 17:28 | 50.50087 | 4.71837 | 3524 ft | 214 kts | 292° |
| 2026-05-05 17:29 | 50.50577 | 4.69711 | 3495 ft | 200 kts | 293° |
| 2026-05-05 17:29 | 50.51204 | 4.67812 | 3483 ft | 193 kts | 314° |
| 2026-05-05 17:29 | 50.52303 | 4.66878 | 3462 ft | 181 kts | 4° |
| 2026-05-05 17:29 | 50.53391 | 4.67655 | 3474 ft | 175 kts | 53° |
| 2026-05-05 17:30 | 50.53723 | 4.69434 | 3492 ft | 170 kts | 82° |
| 2026-05-05 17:30 | 50.53922 | 4.71290 | 3489 ft | 172 kts | 76° |
| 2026-05-05 17:30 | 50.54212 | 4.73116 | 3482 ft | 171 kts | 72° |
| 2026-05-05 17:30 | 50.54573 | 4.74870 | 3474 ft | 169 kts | 68° |
| 2026-05-05 17:31 | 50.54916 | 4.76640 | 3469 ft | 170 kts | 81° |
| 2026-05-05 17:31 | 50.54909 | 4.78507 | 3457 ft | 173 kts | 96° |
| 2026-05-05 17:31 | 50.54533 | 4.80314 | 3455 ft | 174 kts | 115° |
| 2026-05-05 17:31 | 50.53777 | 4.81818 | 3447 ft | 178 kts | 136° |
| 2026-05-05 17:32 | 50.52714 | 4.82798 | 3450 ft | 184 kts | 158° |
| 2026-05-05 17:32 | 50.51443 | 4.83079 | 3449 ft | 188 kts | 183° |
| 2026-05-05 17:32 | 50.50175 | 4.82544 | 3484 ft | 191 kts | 205° |
| 2026-05-05 17:32 | 50.49094 | 4.81359 | 3467 ft | 188 kts | 225° |
| 2026-05-05 17:33 | 50.48477 | 4.79606 | 3423 ft | 186 kts | 270° |
| 2026-05-05 17:33 | 50.48819 | 4.77687 | 3497 ft | 185 kts | 297° |
| 2026-05-05 17:33 | 50.49298 | 4.75785 | 3491 ft | 188 kts | 293° |
| 2026-05-05 17:33 | 50.49727 | 4.73869 | 3482 ft | 183 kts | 292° |
| 2026-05-05 17:34 | 50.50118 | 4.72008 | 3476 ft | 181 kts | 291° |
| 2026-05-05 17:34 | 50.50512 | 4.70108 | 3474 ft | 186 kts | 290° |
| 2026-05-05 17:34 | 50.50985 | 4.68211 | 3476 ft | 186 kts | 297° |
| 2026-05-05 17:34 | 50.51348 | 4.66243 | 3392 ft | 190 kts | 285° |
| 2026-05-05 17:35 | 50.51577 | 4.64189 | 3139 ft | 192 kts | 273° |
| 2026-05-05 17:35 | 50.51190 | 4.62270 | 3022 ft | 181 kts | 241° |
| 2026-05-05 17:35 | 50.50571 | 4.60504 | 3012 ft | 184 kts | 242° |
| 2026-05-05 17:35 | 50.49987 | 4.58744 | 2999 ft | 179 kts | 243° |
| 2026-05-05 17:36 | 50.49412 | 4.56912 | 2496 ft | 201 kts | 246° |
| 2026-05-05 17:36 | 50.48846 | 4.54992 | 2350 ft | 190 kts | 246° |
| 2026-05-05 17:36 | 50.48287 | 4.53118 | 2007 ft | 187 kts | 247° |
| 2026-05-05 17:36 | 50.47769 | 4.51268 | 1613 ft | 180 kts | 247° |
| 2026-05-05 17:37 | 50.47191 | 4.49562 | 1144 ft | 174 kts | 248° |
| 2026-05-05 17:37 | 50.46881 | 4.48405 | 899 ft | 167 kts | 249° |
| 2026-05-05 17:37 | 50.46292 | 4.46347 | 631 ft | 141 kts | 248° |
| 2026-05-05 17:37 | 50.45935 | 4.45110 | 623 ft | 104 kts | 245° |
| 2026-05-05 17:38 | 50.45695 | 4.44284 | 618 ft | 62 kts | 245° |
| 2026-05-05 17:38 | 50.45645 | 4.44000 | 622 ft | 14 kts | 321° |
| 2026-05-05 17:38 | 50.45713 | 4.44033 | 625 ft | 11 kts | 49° |
| 2026-05-05 17:38 | 50.45758 | 4.44122 | 612 ft | 11 kts | 51° |
| 2026-05-05 17:39 | 50.45818 | 4.44241 | 613 ft | 17 kts | 52° |